Time;durP1;ratioP1;P1;durP2;ratioP2;P2;SDS_P1;SDS_P2;PMS_P1;PMS_P2;Temp;Humidity;BMP_temperature;BMP_pressure;BME280_temperature;BME280_humidity;BME280_pressure;Samples;Min_cycle;Max_cycle;Signal;HPM_P1;HPM_P2
2020/12/04 00:01:35;;;;;;;44.38;21.73;;;;;;;0.25;75.13;99650.13;1753886;81;25778;-49
2020/12/04 00:04:02;;;;;;;40.60;20.52;;;;;;;0.26;75.17;99649.87;1754001;81;25878;-55
2020/12/04 00:06:29;;;;;;;40.48;19.85;;;;;;;0.27;75.07;99644.80;1726286;81;25781;-54
2020/12/04 00:08:56;;;;;;;45.70;21.23;;;;;;;0.27;75.26;99640.81;1753874;81;25706;-51
2020/12/04 00:11:23;;;;;;;45.35;22.17;;;;;;;0.27;75.11;99642.14;1754002;81;25701;-51
2020/12/04 00:13:50;;;;;;;39.53;19.23;;;;;;;0.29;75.15;99633.91;1753828;81;25738;-51
2020/12/04 00:16:17;;;;;;;43.45;21.65;;;;;;;0.28;75.16;99625.14;1753924;81;25734;-56
2020/12/04 00:18:44;;;;;;;42.10;21.23;;;;;;;0.29;75.23;99636.57;1753892;81;26194;-51
2020/12/04 00:21:14;;;;;;;40.67;20.85;;;;;;;0.28;75.29;99631.00;1753961;81;25631;-50
2020/12/04 00:23:41;;;;;;;;;;;;;;;0.28;75.33;99637.11;1756606;81;25746;-54
2020/12/04 00:26:07;;;;;;;42.13;19.60;;;;;;;0.27;75.53;99640.81;1753998;81;25718;-53
2020/12/04 00:28:34;;;;;;;39.42;19.67;;;;;;;0.28;75.73;99636.31;1754065;81;25636;-48
2020/12/04 00:31:01;;;;;;;42.55;19.60;;;;;;;0.27;75.69;99637.36;1755640;81;26102;-47
2020/12/04 00:33:28;;;;;;;41.15;19.00;;;;;;;0.26;75.90;99632.58;1759538;81;25700;-48
2020/12/04 00:35:54;;;;;;;45.28;21.65;;;;;;;0.26;75.92;99628.59;1759680;81;25656;-52
2020/12/04 00:38:21;;;;;;;41.40;20.02;;;;;;;0.25;75.99;99628.30;1759623;81;25710;-53
2020/12/04 00:40:48;;;;;;;46.73;21.57;;;;;;;0.25;76.32;99633.63;1759573;81;25713;-48
2020/12/04 00:43:15;;;;;;;48.35;22.25;;;;;;;0.25;76.05;99632.30;1759715;81;26475;-47
2020/12/04 00:45:42;;;;;;;44.33;20.75;;;;;;;0.25;76.39;99634.95;1759462;81;25810;-54
2020/12/04 00:48:08;;;;;;;40.20;20.12;;;;;;;0.25;76.54;99634.95;1759435;81;25727;-49
2020/12/04 00:50:35;;;;;;;45.03;21.05;;;;;;;0.23;76.57;99627.77;1759463;81;26368;-46
2020/12/04 00:53:02;;;;;;;45.43;20.65;;;;;;;0.24;76.62;99636.03;1759438;81;25790;-49
2020/12/04 00:55:29;;;;;;;41.77;20.52;;;;;;;0.25;76.68;99632.83;1759479;81;25989;-53
2020/12/04 00:57:56;;;;;;;43.75;20.27;;;;;;;0.23;76.65;99635.75;1759297;81;25827;-52
2020/12/04 01:00:22;;;;;;;43.98;21.42;;;;;;;0.24;76.64;99622.73;1759216;81;25695;-47
2020/12/04 01:02:49;;;;;;;45.38;20.40;;;;;;;0.26;76.68;99623.80;1759435;81;25588;-51
2020/12/04 01:05:16;;;;;;;38.15;18.67;;;;;;;0.27;76.77;99610.22;1759416;81;25737;-46
2020/12/04 01:07:42;;;;;;;40.17;19.70;;;;;;;0.29;76.64;99627.27;1759412;81;26150;-49
2020/12/04 01:10:09;;;;;;;37.73;19.32;;;;;;;0.30;76.57;99620.89;1759366;81;26590;-49
2020/12/04 01:12:36;;;;;;;40.48;19.85;;;;;;;0.30;76.57;99619.02;1759282;81;25719;-51
2020/12/04 01:15:03;;;;;;;36.98;17.80;;;;;;;0.31;76.59;99614.53;1759351;81;26048;-53
2020/12/04 01:17:30;;;;;;;36.28;18.10;;;;;;;0.32;76.59;99597.48;1759637;81;25658;-49
2020/12/04 01:19:57;;;;;;;38.92;19.75;;;;;;;0.32;76.57;99585.01;1759391;81;25800;-52
2020/12/04 01:22:23;;;;;;;37.38;19.02;;;;;;;0.32;76.41;99598.31;1759490;81;25623;-46
2020/12/04 01:24:50;;;;;;;36.65;18.57;;;;;;;0.35;76.42;99597.77;1759449;81;25721;-46
2020/12/04 01:27:17;;;;;;;42.30;18.87;;;;;;;0.36;76.41;99604.70;1759525;81;25685;-50
2020/12/04 01:29:45;;;;;;;37.78;18.82;;;;;;;0.36;76.35;99594.06;1759489;81;25713;-47
2020/12/04 01:32:12;;;;;;;34.40;17.75;;;;;;;0.38;76.35;99589.03;1759381;81;27341;-50
2020/12/04 01:34:38;;;;;;;35.83;17.82;;;;;;;0.35;76.31;99587.13;1759363;81;25710;-46
2020/12/04 01:37:05;;;;;;;40.80;19.65;;;;;;;0.36;76.25;99587.95;1759469;81;26412;-53
2020/12/04 01:39:32;;;;;;;40.60;19.57;;;;;;;0.35;76.24;99594.31;1759398;81;25981;-54
2020/12/04 01:41:59;;;;;;;43.02;18.50;;;;;;;0.34;76.18;99589.53;1759473;81;25689;-49
2020/12/04 01:44:26;;;;;;;37.15;19.67;;;;;;;0.33;76.29;99593.78;1759405;81;26233;-54
2020/12/04 01:46:53;;;;;;;38.15;18.75;;;;;;;0.32;76.25;99582.34;1759407;81;26392;-52
2020/12/04 01:49:20;;;;;;;35.95;17.92;;;;;;;0.30;76.15;99580.98;1759486;81;25853;-50
2020/12/04 01:51:50;;;;;;;37.50;20.82;;;;;;;0.28;76.21;99577.25;1759484;81;26292;-50
2020/12/04 01:54:19;;;;;;;44.20;18.90;;;;;;;0.28;76.15;99569.81;1759711;81;25756;-54
2020/12/04 01:56:47;;;;;;;41.37;18.83;;;;;;;0.25;76.61;99564.46;1759769;81;26745;-52
2020/12/04 01:59:14;;;;;;;41.20;18.67;;;;;;;0.25;76.71;99561.02;1759382;81;25806;-51
2020/12/04 02:01:44;;;;;;;38.88;19.02;;;;;;;0.26;76.76;99555.44;1759472;81;25675;-51
2020/12/04 02:04:14;;;;;;;36.58;17.70;;;;;;;0.28;76.70;99548.53;1759526;81;25687;-55
2020/12/04 02:06:55;;;;;;;33.92;16.90;;;;;;;0.30;76.67;99553.05;1759485;81;25662;-55
2020/12/04 02:09:29;;;;;;;32.63;16.67;;;;;;;0.31;76.70;99526.20;1756688;81;27524;-50
2020/12/04 02:12:00;;;;;;;33.75;17.30;;;;;;;0.33;76.86;99528.60;1759426;81;25663;-54
2020/12/04 02:14:29;;;;;;;35.15;17.95;;;;;;;0.35;76.71;99514.50;1758498;81;26036;-53
2020/12/04 02:17:06;;;;;;;34.03;17.57;;;;;;;0.36;76.66;99506.80;1759517;81;26137;-51
2020/12/04 02:19:37;;;;;;;34.25;17.45;;;;;;;0.39;76.56;99506.26;1759501;81;25754;-52
2020/12/04 02:22:05;;;;;;;36.88;18.87;;;;;;;0.41;76.52;99500.69;1759500;81;26708;-54
2020/12/04 02:24:32;;;;;;;36.25;16.95;;;;;;;0.41;76.57;99504.67;1759441;81;25739;-52
2020/12/04 02:26:59;;;;;;;34.85;16.30;;;;;;;0.42;76.49;99507.08;1759574;81;25730;-54
2020/12/04 02:29:27;;;;;;;33.63;16.62;;;;;;;0.43;76.53;99511.89;1759370;81;25751;-54
2020/12/04 02:31:54;;;;;;;33.75;17.40;;;;;;;0.44;76.46;99511.60;1759422;81;25776;-51
2020/12/04 02:34:21;;;;;;;30.82;16.85;;;;;;;0.44;76.39;99511.60;1759343;81;26000;-52
2020/12/04 02:36:47;;;;;;;31.37;16.77;;;;;;;0.43;76.38;99515.34;1759268;81;25963;-53
2020/12/04 02:39:14;;;;;;;30.88;16.20;;;;;;;0.42;76.36;99507.08;1759458;81;25734;-52
2020/12/04 02:41:47;;;;;;;31.73;15.98;;;;;;;0.41;76.48;99513.98;1759138;81;25627;-50
2020/12/04 02:44:14;;;;;;;36.10;18.35;;;;;;;0.40;76.25;99511.07;1759539;81;25656;-51
2020/12/04 02:46:40;;;;;;;30.45;16.90;;;;;;;0.38;76.25;99507.34;1759714;81;26963;-50
2020/12/04 02:49:08;;;;;;;34.80;16.87;;;;;;;0.36;76.22;99504.14;1759562;81;25687;-51
2020/12/04 02:51:35;;;;;;;34.48;17.25;;;;;;;0.34;76.31;99507.06;1759720;81;25921;-55
2020/12/04 02:54:02;;;;;;;33.95;17.42;;;;;;;0.32;76.32;99503.87;1759795;81;26320;-54
2020/12/04 02:56:28;;;;;;;30.02;15.65;;;;;;;0.30;76.34;99513.16;1759714;81;25615;-48
2020/12/04 02:58:55;;;;;;;32.55;16.97;;;;;;;0.29;76.42;99515.02;1759732;81;26153;-47
2020/12/04 03:01:22;;;;;;;35.05;16.35;;;;;;;0.27;76.58;99509.14;1759519;81;26296;-56
2020/12/04 03:03:48;;;;;;;34.60;15.70;;;;;;;0.27;76.51;99507.80;1759707;81;26199;-51
2020/12/04 03:06:15;;;;;;;36.98;17.35;;;;;;;0.27;76.62;99503.81;1759640;81;25777;-50
2020/12/04 03:08:42;;;;;;;33.80;16.42;;;;;;;0.28;76.80;99501.44;1759668;81;26024;-49
2020/12/04 03:11:08;;;;;;;31.73;16.67;;;;;;;0.30;76.84;99492.66;1759761;81;26046;-49
2020/12/04 03:13:35;;;;;;;34.03;16.10;;;;;;;0.32;76.89;99496.40;1759696;81;25658;-51
2020/12/04 03:16:02;;;;;;;32.75;16.93;;;;;;;0.34;76.94;99489.77;1759689;81;26347;-52
2020/12/04 03:18:29;;;;;;;30.10;16.82;;;;;;;0.36;76.99;99482.33;1759618;81;25786;-54
2020/12/04 03:20:55;;;;;;;29.42;15.88;;;;;;;0.40;76.91;99482.59;1759751;81;26052;-52
2020/12/04 03:23:22;;;;;;;31.27;15.88;;;;;;;0.43;76.86;99487.94;1759624;81;26374;-53
2020/12/04 03:25:49;;;;;;;32.85;17.15;;;;;;;0.44;76.82;99488.19;1759702;81;25697;-54
2020/12/04 03:28:15;;;;;;;33.58;17.23;;;;;;;0.46;76.90;99483.41;1759699;81;25583;-54
2020/12/04 03:30:42;;;;;;;32.38;16.35;;;;;;;0.47;76.86;99473.83;1759624;81;26286;-52
2020/12/04 03:33:09;;;;;;;31.35;16.00;;;;;;;0.48;76.78;99473.32;1759677;81;25774;-50
2020/12/04 03:35:37;;;;;;;29.85;16.20;;;;;;;0.48;76.66;99468.79;1759624;81;25763;-51
2020/12/04 03:38:06;;;;;;;32.45;16.50;;;;;;;0.48;76.67;99466.13;1759432;81;25737;-52
2020/12/04 03:40:33;;;;;;;30.55;15.83;;;;;;;0.46;76.64;99468.26;1759419;81;25704;-48
2020/12/04 03:42:59;;;;;;;31.05;15.38;;;;;;;0.45;76.67;99465.31;1759484;81;25592;-51
2020/12/04 03:45:26;;;;;;;29.92;16.35;;;;;;;0.44;76.64;99468.23;1759656;81;26008;-51
2020/12/04 03:47:54;;;;;;;30.15;16.05;;;;;;;0.43;76.76;99463.45;1759616;81;26175;-56
2020/12/04 03:50:21;;;;;;;30.62;15.98;;;;;;;0.42;76.62;99461.84;1759481;81;25660;-54
2020/12/04 03:52:49;;;;;;;29.02;15.85;;;;;;;0.41;76.68;99454.94;1759486;81;25769;-47
2020/12/04 03:55:16;;;;;;;31.23;16.17;;;;;;;0.40;76.70;99457.86;1759506;81;25790;-48
2020/12/04 03:57:43;;;;;;;26.57;13.60;;;;;;;0.39;76.68;99457.04;1759586;81;25658;-54
2020/12/04 04:00:09;;;;;;;31.62;16.45;;;;;;;0.36;76.90;99457.05;1759443;81;26175;-50
2020/12/04 04:02:36;;;;;;;25.70;14.25;;;;;;;0.35;76.90;99458.09;1759552;81;26271;-54
2020/12/04 04:05:03;;;;;;;29.87;15.63;;;;;;;0.30;76.97;99437.34;1759645;81;25918;-47
2020/12/04 04:07:30;;;;;;;32.78;16.32;;;;;;;0.33;77.16;99456.77;1759598;81;25998;-48
2020/12/04 04:09:58;;;;;;;28.60;15.60;;;;;;;0.33;77.13;99456.23;1759746;81;25807;-55
2020/12/04 04:12:25;;;;;;;29.00;15.43;;;;;;;0.32;77.32;99450.66;1759625;81;26251;-53
2020/12/04 04:14:51;;;;;;;30.62;15.15;;;;;;;0.32;77.43;99459.16;1759505;81;25731;-53
2020/12/04 04:17:18;;;;;;;32.17;17.30;;;;;;;0.32;77.39;99442.68;1759626;81;25692;-53
2020/12/04 04:19:45;;;;;;;29.72;15.30;;;;;;;0.33;77.51;99455.45;1759630;81;26156;-50
2020/12/04 04:22:12;;;;;;;30.12;15.68;;;;;;;0.32;77.39;99453.33;1759646;81;25656;-51
2020/12/04 04:24:38;;;;;;;26.65;14.43;;;;;;;0.33;77.33;99443.47;1759711;81;25916;-49
2020/12/04 04:27:05;;;;;;;30.45;15.53;;;;;;;0.33;77.46;99450.91;1759628;81;25627;-52
2020/12/04 04:29:32;;;;;;;27.42;13.68;;;;;;;0.32;77.42;99442.68;1759623;81;25638;-48
2020/12/04 04:31:59;;;;;;;30.75;16.10;;;;;;;0.31;77.84;99434.42;1758962;81;25792;-47
2020/12/04 04:34:25;;;;;;;28.80;17.02;;;;;;;0.31;77.47;99434.42;1753983;81;25627;-49
2020/12/04 04:36:52;;;;;;;34.05;16.15;;;;;;;0.32;77.55;99434.70;1754086;81;27534;-53
2020/12/04 04:39:19;;;;;;;27.37;14.73;;;;;;;0.32;77.50;99428.56;1753816;81;25575;-53
2020/12/04 04:41:46;;;;;;;30.37;14.73;;;;;;;0.33;77.55;99432.83;1753948;81;25647;-53
2020/12/04 04:44:13;;;;;;;28.67;15.08;;;;;;;0.33;77.66;99427.51;1753901;81;25596;-53
2020/12/04 04:46:51;;;;;;;28.25;16.02;;;;;;;0.34;77.55;99437.07;1753988;81;25676;-53
2020/12/04 04:49:29;;;;;;;29.18;15.55;;;;;;;0.33;77.67;99440.81;1752797;81;26106;-52
2020/12/04 04:51:58;;;;;;;30.15;16.07;;;;;;;0.33;77.81;99435.49;1754043;81;25734;-52
2020/12/04 04:54:26;;;;;;;24.70;14.95;;;;;;;0.32;77.57;99433.38;1754153;81;25626;-55
2020/12/04 04:56:53;;;;;;;30.57;15.58;;;;;;;0.32;77.74;99439.20;1754001;81;25712;-54
2020/12/04 04:59:20;;;;;;;28.60;15.35;;;;;;;0.31;77.99;99450.38;1754061;81;25674;-55
2020/12/04 05:01:48;;;;;;;34.38;17.67;;;;;;;0.33;77.81;99441.60;1754017;81;27149;-55
2020/12/04 05:04:16;;;;;;;30.25;16.20;;;;;;;0.33;77.86;99429.63;1753853;81;25651;-55
2020/12/04 05:06:44;;;;;;;30.17;15.78;;;;;;;0.33;77.80;99432.83;1753980;81;25748;-47
2020/12/04 05:09:19;;;;;;;28.52;14.65;;;;;;;0.35;77.85;99442.67;1753944;81;26395;-54
2020/12/04 05:12:00;;;;;;;30.72;15.70;;;;;;;0.35;78.17;99421.39;1746758;81;25689;-52
2020/12/04 05:14:27;;;;;;;26.25;14.85;;;;;;;0.34;77.97;99422.44;1754145;81;25759;-54
2020/12/04 05:16:58;;;;;;;28.80;14.98;;;;;;;0.34;77.94;99413.95;1754037;81;25648;-53
2020/12/04 05:19:34;;;;;;;27.50;14.43;;;;;;;0.34;78.02;99417.94;1754050;81;25638;-54
2020/12/04 05:22:17;;;;;;;28.30;15.85;;;;;;;0.37;77.98;99412.61;1754170;81;26052;-52
2020/12/04 05:24:45;;;;;;;25.55;14.33;;;;;;;0.39;78.01;99413.68;1754195;81;26149;-54
2020/12/04 05:27:31;;;;;;;32.20;15.20;;;;;;;0.40;77.97;99424.60;1754145;81;25710;-47
2020/12/04 05:30:00;;;;;;;27.48;14.58;;;;;;;0.40;78.08;99443.23;1754033;81;25737;-49
2020/12/04 05:32:28;;;;;;;25.02;14.73;;;;;;;0.41;78.10;99422.19;1753848;81;25631;-50
2020/12/04 05:35:08;;;;;;;29.70;14.90;;;;;;;0.42;78.04;99424.59;1754051;81;25575;-50
2020/12/04 05:37:34;;;;;;;30.05;14.45;;;;;;;0.43;78.25;99433.39;1754093;81;25610;-48
2020/12/04 05:40:02;;;;;;;25.97;14.55;;;;;;;0.45;78.12;99423.28;1753915;81;27079;-54
2020/12/04 05:42:40;;;;;;;34.05;15.05;;;;;;;0.45;78.06;99422.74;1753791;81;25654;-49
2020/12/04 05:45:06;;;;;;;25.72;13.83;;;;;;;0.45;78.23;99411.31;1753886;81;25742;-55
2020/12/04 05:47:45;;;;;;;26.82;15.83;;;;;;;0.45;78.61;99411.31;1753969;81;25749;-48
2020/12/04 05:50:14;;;;;;;27.25;13.88;;;;;;;0.46;78.42;99424.35;1754079;81;25687;-52
2020/12/04 05:52:41;;;;;;;30.30;14.45;;;;;;;0.47;78.41;99425.94;1754091;81;26366;-54
2020/12/04 05:55:10;;;;;;;30.05;15.13;;;;;;;0.48;78.40;99438.73;1753871;81;25647;-51
2020/12/04 05:57:53;;;;;;;32.28;15.13;;;;;;;0.48;78.59;99434.20;1754018;81;25648;-53
2020/12/04 06:00:21;;;;;;;27.00;14.80;;;;;;;0.48;78.33;99432.87;1754023;81;26500;-52
2020/12/04 06:03:03;;;;;;;29.95;15.85;;;;;;;0.48;78.32;99434.73;1754021;81;25695;-47
2020/12/04 06:05:30;;;;;;;32.53;15.88;;;;;;;0.47;78.34;99435.78;1754115;81;26672;-49
2020/12/04 06:08:06;;;;;;;28.67;15.48;;;;;;;0.46;78.40;99435.00;1753893;81;25875;-51
2020/12/04 06:10:34;;;;;;;26.42;14.50;;;;;;;0.47;78.48;99438.45;1754105;81;25730;-54
2020/12/04 06:13:02;;;;;;;29.30;14.95;;;;;;;0.46;78.46;99430.19;1754025;81;25770;-48
2020/12/04 06:15:32;;;;;;;28.17;15.55;;;;;;;0.47;78.64;99441.11;1754061;81;25927;-50
2020/12/04 06:18:08;;;;;;;26.80;15.30;;;;;;;0.46;78.55;99431.00;1754108;81;26304;-45
2020/12/04 06:20:48;;;;;;;26.33;14.45;;;;;;;0.45;78.52;99429.39;1753359;81;25705;-47
2020/12/04 06:23:18;;;;;;;28.30;15.20;;;;;;;0.45;78.85;99436.59;1754083;81;26413;-49
2020/12/04 06:25:56;;;;;;;28.90;15.55;;;;;;;0.45;78.89;99435.26;1753970;81;25836;-46
2020/12/04 06:28:32;;;;;;;32.23;16.07;;;;;;;0.45;78.82;99435.26;1753960;81;25631;-53
2020/12/04 06:31:14;;;;;;;32.95;16.95;;;;;;;0.45;78.63;99458.66;1752906;81;25828;-48
2020/12/04 06:33:48;;;;;;;30.88;16.00;;;;;;;0.44;78.82;99454.94;1758466;81;26612;-47
2020/12/04 06:36:34;;;;;;;34.67;17.32;;;;;;;0.43;78.71;99450.16;1733158;82;25735;-51
2020/12/04 06:39:04;;;;;;;28.95;15.43;;;;;;;0.43;78.92;99452.02;1763567;81;25798;-54
2020/12/04 06:41:45;;;;;;;34.00;16.48;;;;;;;0.44;79.01;99441.62;1733436;82;26133;-53
2020/12/04 06:44:23;;;;;;;32.77;16.90;;;;;;;0.51;79.07;99450.16;1846635;76;34796;-46
2020/12/04 06:46:54;;;;;;;29.60;15.95;;;;;;;0.44;79.05;99437.09;1816710;78;25715;-49
2020/12/04 06:52:10;;;;;;;29.82;16.23;;;;;;;0.47;78.91;99451.75;1816628;78;25765;-51
2020/12/04 06:54:46;;;;;;;29.98;16.07;;;;;;;0.47;78.88;99452.55;1815659;78;25685;-55
2020/12/04 06:57:16;;;;;;;34.63;16.95;;;;;;;0.50;78.97;99449.91;1816476;78;26350;-51
2020/12/04 06:59:45;;;;;;;31.93;15.20;;;;;;;0.52;78.99;99448.56;1794287;78;25732;-53
2020/12/04 07:02:20;;;;;;;29.27;15.83;;;;;;;0.53;78.96;99449.38;1762720;81;25786;-53
2020/12/04 07:04:53;;;;;;;27.17;14.98;;;;;;;0.57;79.02;99453.64;1804975;77;25655;-57
2020/12/04 07:07:26;;;;;;;32.23;16.48;;;;;;;0.61;78.95;99456.03;1834593;77;26038;-55
2020/12/04 07:10:02;;;;;;;31.42;16.20;;;;;;;0.64;78.86;99462.17;1830014;77;26821;-54
2020/12/04 07:12:33;;;;;;;27.82;15.03;;;;;;;0.67;78.73;99469.09;1807835;77;25684;-54
2020/12/04 07:15:00;;;;;;;28.83;14.65;;;;;;;0.71;78.76;99472.03;1792135;78;26151;-54
2020/12/04 07:17:29;;;;;;;36.48;16.90;;;;;;;0.74;78.86;99464.31;1784256;80;25896;-53
2020/12/04 07:20:01;;;;;;;38.15;17.20;;;;;;;0.79;78.74;99466.19;1784482;80;26343;-54
2020/12/04 07:22:28;;;;;;;28.92;15.70;;;;;;;0.82;78.60;99465.67;1784353;80;25856;-53
2020/12/04 07:24:57;;;;;;;34.80;16.50;;;;;;;0.86;78.48;99464.61;1784366;80;25644;-57
2020/12/04 07:27:28;;;;;;;31.20;16.48;;;;;;;0.87;78.43;99472.33;1784474;80;27144;-51
2020/12/04 07:29:54;;;;;;;32.93;15.83;;;;;;;0.90;78.38;99461.16;1784385;80;25773;-51
2020/12/04 07:32:23;;;;;;;32.33;15.88;;;;;;;0.97;78.30;99474.21;1784368;80;25813;-51
2020/12/04 07:34:50;;;;;;;30.45;16.02;;;;;;;1.01;78.21;99459.83;1784539;80;26454;-55
2020/12/04 07:37:17;;;;;;;31.95;16.95;;;;;;;1.07;78.13;99441.44;1784429;80;25653;-54
2020/12/04 07:39:45;;;;;;;30.72;16.17;;;;;;;1.10;78.05;99456.35;1784512;80;25994;-56
2020/12/04 07:42:14;;;;;;;31.20;16.42;;;;;;;1.15;77.92;99454.77;1784338;80;25788;-52
2020/12/04 07:44:52;;;;;;;32.60;17.55;;;;;;;1.19;77.87;99448.66;1804490;77;25958;-53
2020/12/04 07:47:19;;;;;;;32.85;15.53;;;;;;;1.24;77.71;99437.17;1751671;80;25644;-53
2020/12/04 07:49:51;;;;;;;29.45;17.02;;;;;;;1.28;77.46;99439.58;1796510;79;25756;-53
2020/12/04 07:52:35;;;;;;;33.50;16.62;;;;;;;1.34;77.52;99451.02;1774301;80;25710;-58
2020/12/04 07:55:06;;;;;;;36.83;17.55;;;;;;;1.34;77.37;99446.48;1735547;82;25853;-58
2020/12/04 07:57:48;;;;;;;33.67;17.37;;;;;;;1.45;77.05;99452.63;1747683;81;26303;-56
2020/12/04 08:00:16;;;;;;;35.20;17.42;;;;;;;1.40;77.04;99436.09;1721903;83;25909;-57
2020/12/04 08:02:44;;;;;;;29.50;16.20;;;;;;;1.55;76.86;99449.94;1730047;81;25714;-53
2020/12/04 08:05:20;;;;;;;32.45;18.57;;;;;;;1.63;76.90;99446.70;1730389;82;25877;-58
2020/12/04 08:07:52;;;;;;;34.40;17.15;;;;;;;1.72;76.84;99448.82;1730819;82;25758;-58
2020/12/04 08:10:22;;;;;;;32.93;17.10;;;;;;;1.81;76.69;99454.66;1807498;79;25684;-50
2020/12/04 08:12:50;;;;;;;31.60;16.70;;;;;;;1.93;76.59;99469.58;1811757;79;25779;-53
2020/12/04 08:15:19;;;;;;;34.23;16.10;;;;;;;1.98;76.36;99469.56;1812088;79;25645;-57
2020/12/04 08:17:46;;;;;;;31.77;15.13;;;;;;;2.11;76.16;99468.17;1745718;82;26416;-53
2020/12/04 08:20:18;;;;;;;34.18;15.75;;;;;;;2.27;75.94;99455.03;1755079;81;25686;-56
2020/12/04 08:22:49;;;;;;;34.35;17.12;;;;;;;2.54;76.14;99455.18;1745126;81;25723;-56
2020/12/04 08:25:25;;;;;;;28.47;16.70;;;;;;;2.79;75.54;99453.69;1755155;81;26436;-57
2020/12/04 08:27:54;;;;;;;34.63;17.37;;;;;;;3.05;75.14;99461.52;1743446;79;25655;-55
2020/12/04 08:30:24;;;;;;;29.50;15.35;;;;;;;3.30;74.66;99470.39;1742775;81;27335;-54
2020/12/04 08:33:03;;;;;;;34.05;17.23;;;;;;;3.55;74.06;99461.34;1741824;81;25736;-56
2020/12/04 08:35:36;;;;;;;35.20;16.62;;;;;;;3.73;73.34;99453.95;1729955;81;25688;-53
2020/12/04 08:38:12;;;;;;;33.30;16.17;;;;;;;3.79;71.68;99458.69;1741637;81;26113;-54
2020/12/04 08:40:45;;;;;;;33.18;15.88;;;;;;;3.76;71.36;99448.55;1730914;81;25640;-53
2020/12/04 08:43:17;;;;;;;32.95;16.95;;;;;;;3.73;72.37;99454.49;1728555;82;25972;-53
2020/12/04 08:45:51;;;;;;;29.80;15.30;;;;;;;3.67;71.91;99463.09;1728574;82;25753;-50
2020/12/04 08:48:24;;;;;;;31.33;16.65;;;;;;;3.57;71.06;99479.23;1727994;82;25642;-50
2020/12/04 08:50:57;;;;;;;30.80;17.27;;;;;;;3.42;71.43;99486.06;1728682;82;25696;-56
2020/12/04 08:53:25;;;;;;;33.30;16.40;;;;;;;3.24;71.07;99484.89;1728780;82;25650;-56
2020/12/04 08:55:55;;;;;;;32.50;16.80;;;;;;;3.11;71.40;99467.06;1735340;80;25768;-56
2020/12/04 08:58:24;;;;;;;31.27;15.90;;;;;;;3.03;71.88;99470.35;1767310;80;25935;-56
2020/12/04 09:00:55;;;;;;;35.85;18.02;;;;;;;3.01;72.26;99469.02;1741532;82;26055;-57
2020/12/04 09:03:23;;;;;;;37.30;17.77;;;;;;;3.01;72.26;99471.14;1741451;82;25671;-51
2020/12/04 09:05:50;;;;;;;40.90;18.05;;;;;;;3.01;72.28;99473.03;1743820;79;25719;-55
2020/12/04 09:08:17;;;;;;;37.00;19.17;;;;;;;3.03;72.43;99456.99;1776314;79;26194;-55
2020/12/04 09:10:44;;;;;;;34.63;18.35;;;;;;;3.14;72.86;99491.10;1775255;80;25734;-50
2020/12/04 09:13:11;;;;;;;33.63;17.98;;;;;;;3.20;72.31;99465.13;1770557;79;25760;-50
2020/12/04 09:15:38;;;;;;;33.13;17.10;;;;;;;3.29;72.57;99457.57;1766538;79;25697;-56
2020/12/04 09:18:05;;;;;;;39.60;19.52;;;;;;;3.39;72.11;99467.39;1758979;81;25680;-51
2020/12/04 09:20:34;;;;;;;32.95;18.23;;;;;;;3.43;72.12;99468.41;1758951;81;26871;-55
2020/12/04 09:23:01;;;;;;;36.28;19.20;;;;;;;3.50;72.12;99481.45;1758816;81;25814;-54
2020/12/04 09:25:28;;;;;;;35.20;18.52;;;;;;;3.60;71.88;99479.23;1743302;81;25880;-54
2020/12/04 09:27:55;;;;;;;37.10;18.00;;;;;;;3.69;71.59;99474.84;1771343;79;26536;-55
2020/12/04 09:30:22;;;;;;;30.45;17.45;;;;;;;3.90;71.08;99482.92;1777411;79;25594;-57
2020/12/04 09:32:50;;;;;;;36.30;18.55;;;;;;;3.99;70.64;99474.28;1769599;79;26162;-56
2020/12/04 09:35:19;;;;;;;33.00;17.73;;;;;;;3.92;69.63;99475.95;1741372;82;25702;-53
2020/12/04 09:37:47;;;;;;;29.40;17.52;;;;;;;3.88;70.06;99474.39;1744209;79;25641;-52
2020/12/04 09:40:19;;;;;;;32.10;17.95;;;;;;;3.88;70.16;99479.75;1716883;82;25672;-56
2020/12/04 09:42:47;;;;;;;32.00;17.12;;;;;;;3.91;70.74;99490.41;1743812;81;25653;-56
2020/12/04 09:45:15;;;;;;;33.40;17.50;;;;;;;4.01;70.29;99480.92;1751668;81;26675;-55
2020/12/04 09:47:42;;;;;;;32.15;17.67;;;;;;;4.26;70.91;99468.34;1752122;81;25609;-57
2020/12/04 09:50:12;;;;;;;32.05;17.00;;;;;;;4.64;71.01;99467.03;1757345;81;25600;-56
2020/12/04 09:52:40;;;;;;;28.70;15.43;;;;;;;4.96;68.98;99460.16;1752333;81;26080;-56
2020/12/04 09:55:09;;;;;;;27.82;15.65;;;;;;;5.27;68.68;99452.41;1752478;81;26291;-56
2020/12/04 09:57:35;;;;;;;29.87;15.75;;;;;;;5.35;68.45;99447.71;1752388;81;25705;-55
2020/12/04 10:00:06;;;;;;;26.42;15.28;;;;;;;5.21;67.63;99449.02;1752387;81;26142;-56
2020/12/04 10:02:33;;;;;;;31.37;16.87;;;;;;;5.15;67.58;99443.48;1765271;80;25964;-56
2020/12/04 10:04:59;;;;;;;31.65;15.83;;;;;;;5.20;67.66;99434.56;1765547;80;25642;-57
2020/12/04 10:07:26;;;;;;;28.20;16.40;;;;;;;5.28;67.16;99443.28;1764156;81;25607;-56
2020/12/04 10:09:53;;;;;;;26.48;15.88;;;;;;;5.37;67.82;99422.73;1778577;80;26671;-56
2020/12/04 10:12:20;;;;;;;28.70;15.90;;;;;;;5.49;67.88;99431.64;1778784;80;25596;-56
2020/12/04 10:14:47;;;;;;;28.17;15.68;;;;;;;5.74;67.56;99430.94;1779162;80;25654;-57
2020/12/04 10:17:14;;;;;;;31.33;16.62;;;;;;;5.95;67.18;99421.37;1779118;80;26058;-55
2020/12/04 10:19:40;;;;;;;28.05;15.32;;;;;;;6.21;66.42;99431.63;1779147;80;25750;-50
2020/12/04 10:22:07;;;;;;;25.15;14.83;;;;;;;6.43;66.04;99416.12;1779228;80;25774;-48
2020/12/04 10:24:34;;;;;;;30.37;15.63;;;;;;;6.37;65.45;99421.37;1779243;80;26018;-57
2020/12/04 10:27:01;;;;;;;29.30;15.55;;;;;;;6.33;65.07;99420.37;1779306;80;25630;-53
2020/12/04 10:29:27;;;;;;;29.85;15.55;;;;;;;6.20;64.98;99431.39;1779124;80;25650;-52
2020/12/04 10:31:54;;;;;;;27.35;15.65;;;;;;;6.03;65.50;99432.01;1778990;80;25703;-56
2020/12/04 10:34:21;;;;;;;27.02;15.10;;;;;;;5.85;64.30;99422.14;1779182;80;25755;-55
2020/12/04 10:36:48;;;;;;;27.70;16.20;;;;;;;5.56;64.77;99464.23;1771630;80;25785;-56
2020/12/04 10:39:15;;;;;;;23.40;14.60;;;;;;;5.23;65.38;99438.80;1763673;80;25542;-54
2020/12/04 10:41:43;;;;;;;26.50;15.28;;;;;;;5.02;66.08;99438.86;1763919;80;25721;-53
2020/12/04 10:44:11;;;;;;;29.12;15.80;;;;;;;4.84;66.42;99433.25;1770455;78;25655;-56
2020/12/04 10:46:39;;;;;;;28.38;15.63;;;;;;;4.67;67.17;99421.70;1802529;79;25907;-55
2020/12/04 10:49:06;;;;;;;27.45;15.80;;;;;;;4.52;67.41;99425.95;1783595;80;25646;-56
2020/12/04 10:51:33;;;;;;;28.45;16.85;;;;;;;4.35;67.75;99416.29;1802621;79;25609;-58
2020/12/04 10:54:00;;;;;;;30.77;16.15;;;;;;;4.24;68.29;99411.59;1783712;80;25729;-58
2020/12/04 10:56:27;;;;;;;29.25;17.05;;;;;;;4.14;68.45;99406.37;1792498;79;25779;-57
2020/12/04 10:58:54;;;;;;;29.75;16.00;;;;;;;4.05;68.80;99407.03;1778037;80;26434;-59
2020/12/04 11:06:52;;;;;;;33.05;16.90;;;;;;;3.87;69.61;99407.79;1786465;79;25574;-59
2020/12/04 11:09:19;;;;;;;26.95;15.35;;;;;;;3.81;69.80;99390.19;1775480;80;25654;-58
2020/12/04 11:11:45;;;;;;;32.23;16.93;;;;;;;3.76;70.00;99401.73;1796659;79;26321;-54
2020/12/04 11:14:12;;;;;;;29.50;16.35;;;;;;;3.73;70.15;99403.67;1771083;80;26187;-55
2020/12/04 11:16:42;;;;;;;32.58;16.07;;;;;;;3.69;70.27;99396.73;1751476;79;25723;-55
2020/12/04 11:19:10;;;;;;;32.00;17.00;;;;;;;3.69;70.40;99403.97;1751395;81;25686;-58
2020/12/04 11:21:37;;;;;;;32.20;17.05;;;;;;;3.67;70.50;99382.85;1761830;81;25652;-56
2020/12/04 11:24:06;;;;;;;27.45;15.90;;;;;;;3.68;70.68;99403.73;1761998;81;25810;-56
2020/12/04 11:26:33;;;;;;;31.60;18.10;;;;;;;3.66;70.70;99376.45;1751916;79;26333;-57
2020/12/04 11:29:00;;;;;;;32.00;17.37;;;;;;;3.66;70.74;99377.27;1731651;82;25826;-54
2020/12/04 11:31:27;;;;;;;36.77;18.00;;;;;;;3.69;70.77;99382.57;1731807;82;25486;-53
2020/12/04 11:33:54;;;;;;;28.83;16.17;;;;;;;3.68;70.68;99371.09;1731632;82;25694;-56
2020/12/04 11:36:20;;;;;;;28.90;16.30;;;;;;;3.70;70.84;99352.08;1731807;82;25772;-59
2020/12/04 11:38:47;;;;;;;28.95;16.80;;;;;;;3.73;70.90;99352.30;1731701;82;26093;-55
2020/12/04 11:41:14;;;;;;;27.17;16.37;;;;;;;3.74;70.84;99357.89;1731797;82;25657;-55
2020/12/04 11:43:41;;;;;;;30.68;17.52;;;;;;;3.77;70.83;99368.57;1731669;82;25666;-53